sensor_id;sensor_type;location;lat;lon;timestamp;P1;durP1;ratioP1;P2;durP2;ratioP2
84956;SDS011;75252;45.438;-73.814;2024-01-27T00:01:33;10.88;;;7.60;;
84956;SDS011;75252;45.438;-73.814;2024-01-27T00:03:59;14.48;;;9.52;;
84956;SDS011;75252;45.438;-73.814;2024-01-27T00:06:25;12.82;;;8.07;;
84956;SDS011;75252;45.438;-73.814;2024-01-27T00:08:50;10.40;;;7.93;;
84956;SDS011;75252;45.438;-73.814;2024-01-27T00:11:16;12.90;;;8.13;;
84956;SDS011;75252;45.438;-73.814;2024-01-27T00:13:42;11.23;;;7.68;;
84956;SDS011;75252;45.438;-73.814;2024-01-27T00:16:11;10.40;;;7.18;;
84956;SDS011;75252;45.438;-73.814;2024-01-27T00:18:37;9.77;;;7.63;;
84956;SDS011;75252;45.438;-73.814;2024-01-27T00:21:04;9.07;;;6.80;;
84956;SDS011;75252;45.438;-73.814;2024-01-27T00:23:31;9.02;;;7.28;;
84956;SDS011;75252;45.438;-73.814;2024-01-27T00:25:57;11.95;;;8.15;;
84956;SDS011;75252;45.438;-73.814;2024-01-27T00:28:24;10.20;;;7.22;;
84956;SDS011;75252;45.438;-73.814;2024-01-27T00:30:50;11.30;;;7.20;;
84956;SDS011;75252;45.438;-73.814;2024-01-27T00:33:16;8.55;;;6.72;;
84956;SDS011;75252;45.438;-73.814;2024-01-27T00:35:42;9.40;;;6.20;;
84956;SDS011;75252;45.438;-73.814;2024-01-27T00:38:08;10.68;;;6.90;;
84956;SDS011;75252;45.438;-73.814;2024-01-27T00:40:34;9.38;;;7.10;;
84956;SDS011;75252;45.438;-73.814;2024-01-27T00:43:02;9.32;;;6.10;;
84956;SDS011;75252;45.438;-73.814;2024-01-27T00:45:28;9.45;;;6.43;;
84956;SDS011;75252;45.438;-73.814;2024-01-27T00:47:55;8.77;;;6.03;;
84956;SDS011;75252;45.438;-73.814;2024-01-27T00:50:22;10.32;;;6.65;;
84956;SDS011;75252;45.438;-73.814;2024-01-27T00:52:48;12.55;;;7.07;;
84956;SDS011;75252;45.438;-73.814;2024-01-27T00:55:14;12.55;;;6.68;;
84956;SDS011;75252;45.438;-73.814;2024-01-27T00:57:40;9.18;;;6.60;;
84956;SDS011;75252;45.438;-73.814;2024-01-27T01:00:09;9.10;;;7.25;;
84956;SDS011;75252;45.438;-73.814;2024-01-27T01:02:37;11.23;;;7.10;;
84956;SDS011;75252;45.438;-73.814;2024-01-27T01:05:03;9.30;;;6.80;;
84956;SDS011;75252;45.438;-73.814;2024-01-27T01:07:30;8.85;;;6.40;;
84956;SDS011;75252;45.438;-73.814;2024-01-27T01:09:56;7.05;;;5.82;;
84956;SDS011;75252;45.438;-73.814;2024-01-27T01:12:22;8.38;;;6.07;;
84956;SDS011;75252;45.438;-73.814;2024-01-27T01:14:50;8.30;;;6.65;;
84956;SDS011;75252;45.438;-73.814;2024-01-27T01:17:17;8.07;;;6.28;;
84956;SDS011;75252;45.438;-73.814;2024-01-27T01:19:43;8.65;;;6.10;;
84956;SDS011;75252;45.438;-73.814;2024-01-27T01:22:09;12.27;;;5.50;;
84956;SDS011;75252;45.438;-73.814;2024-01-27T01:24:35;11.73;;;6.20;;
84956;SDS011;75252;45.438;-73.814;2024-01-27T01:27:01;6.88;;;5.18;;
84956;SDS011;75252;45.438;-73.814;2024-01-27T01:29:26;8.05;;;6.32;;
84956;SDS011;75252;45.438;-73.814;2024-01-27T01:31:56;7.47;;;5.75;;
84956;SDS011;75252;45.438;-73.814;2024-01-27T01:34:22;8.93;;;5.40;;
84956;SDS011;75252;45.438;-73.814;2024-01-27T01:36:51;9.27;;;6.50;;
84956;SDS011;75252;45.438;-73.814;2024-01-27T01:39:20;8.10;;;5.55;;
84956;SDS011;75252;45.438;-73.814;2024-01-27T01:41:46;8.60;;;5.47;;
84956;SDS011;75252;45.438;-73.814;2024-01-27T01:44:12;9.25;;;5.90;;
84956;SDS011;75252;45.438;-73.814;2024-01-27T01:46:39;7.20;;;5.20;;
84956;SDS011;75252;45.438;-73.814;2024-01-27T01:49:05;7.35;;;5.70;;
84956;SDS011;75252;45.438;-73.814;2024-01-27T01:51:32;6.28;;;4.93;;
84956;SDS011;75252;45.438;-73.814;2024-01-27T01:53:58;5.63;;;4.85;;
84956;SDS011;75252;45.438;-73.814;2024-01-27T01:56:25;9.07;;;4.88;;
84956;SDS011;75252;45.438;-73.814;2024-01-27T01:58:51;6.35;;;5.32;;
84956;SDS011;75252;45.438;-73.814;2024-01-27T02:01:19;6.13;;;4.75;;
84956;SDS011;75252;45.438;-73.814;2024-01-27T02:03:56;6.32;;;4.55;;
84956;SDS011;75252;45.438;-73.814;2024-01-27T02:06:23;9.95;;;5.28;;
84956;SDS011;75252;45.438;-73.814;2024-01-27T02:08:50;6.63;;;5.55;;
84956;SDS011;75252;45.438;-73.814;2024-01-27T02:13:44;6.00;;;5.40;;
84956;SDS011;75252;45.438;-73.814;2024-01-27T02:16:10;5.75;;;4.20;;
84956;SDS011;75252;45.438;-73.814;2024-01-27T02:18:35;7.93;;;4.53;;
84956;SDS011;75252;45.438;-73.814;2024-01-27T02:21:01;5.57;;;4.72;;
84956;SDS011;75252;45.438;-73.814;2024-01-27T02:23:27;7.57;;;4.47;;
84956;SDS011;75252;45.438;-73.814;2024-01-27T02:25:53;6.93;;;5.32;;
84956;SDS011;75252;45.438;-73.814;2024-01-27T02:28:19;6.68;;;4.75;;
84956;SDS011;75252;45.438;-73.814;2024-01-27T02:30:45;6.18;;;4.53;;
84956;SDS011;75252;45.438;-73.814;2024-01-27T02:33:11;5.70;;;4.85;;
84956;SDS011;75252;45.438;-73.814;2024-01-27T02:35:37;4.72;;;4.18;;
84956;SDS011;75252;45.438;-73.814;2024-01-27T02:38:03;5.45;;;4.65;;
84956;SDS011;75252;45.438;-73.814;2024-01-27T02:40:29;5.70;;;5.07;;
84956;SDS011;75252;45.438;-73.814;2024-01-27T02:42:55;6.18;;;4.25;;
84956;SDS011;75252;45.438;-73.814;2024-01-27T02:45:22;5.00;;;4.50;;
84956;SDS011;75252;45.438;-73.814;2024-01-27T02:47:48;6.65;;;5.85;;
84956;SDS011;75252;45.438;-73.814;2024-01-27T02:50:14;5.85;;;4.53;;
84956;SDS011;75252;45.438;-73.814;2024-01-27T02:52:40;7.38;;;4.93;;
84956;SDS011;75252;45.438;-73.814;2024-01-27T02:55:06;5.30;;;4.28;;
84956;SDS011;75252;45.438;-73.814;2024-01-27T02:57:32;6.43;;;4.68;;
84956;SDS011;75252;45.438;-73.814;2024-01-27T02:59:58;9.15;;;4.97;;
84956;SDS011;75252;45.438;-73.814;2024-01-27T03:02:25;6.35;;;4.95;;
84956;SDS011;75252;45.438;-73.814;2024-01-27T03:04:53;7.47;;;4.10;;
84956;SDS011;75252;45.438;-73.814;2024-01-27T03:07:18;5.88;;;4.90;;
84956;SDS011;75252;45.438;-73.814;2024-01-27T03:09:44;5.70;;;4.60;;
84956;SDS011;75252;45.438;-73.814;2024-01-27T03:12:10;6.50;;;5.20;;
84956;SDS011;75252;45.438;-73.814;2024-01-27T03:14:36;5.50;;;4.93;;
84956;SDS011;75252;45.438;-73.814;2024-01-27T03:17:02;7.18;;;5.35;;
84956;SDS011;75252;45.438;-73.814;2024-01-27T03:19:28;6.40;;;4.63;;
84956;SDS011;75252;45.438;-73.814;2024-01-27T03:21:54;6.00;;;5.20;;
84956;SDS011;75252;45.438;-73.814;2024-01-27T03:24:20;5.95;;;4.75;;
84956;SDS011;75252;45.438;-73.814;2024-01-27T03:26:46;6.70;;;5.28;;
84956;SDS011;75252;45.438;-73.814;2024-01-27T03:29:12;9.27;;;5.60;;
84956;SDS011;75252;45.438;-73.814;2024-01-27T03:31:38;6.38;;;5.05;;
84956;SDS011;75252;45.438;-73.814;2024-01-27T03:34:04;8.63;;;5.50;;
84956;SDS011;75252;45.438;-73.814;2024-01-27T03:36:30;7.85;;;4.78;;
84956;SDS011;75252;45.438;-73.814;2024-01-27T03:38:57;7.05;;;5.32;;
84956;SDS011;75252;45.438;-73.814;2024-01-27T03:41:24;7.10;;;5.03;;
84956;SDS011;75252;45.438;-73.814;2024-01-27T03:43:50;6.25;;;5.13;;
84956;SDS011;75252;45.438;-73.814;2024-01-27T03:46:16;6.88;;;4.63;;
84956;SDS011;75252;45.438;-73.814;2024-01-27T03:48:42;6.63;;;5.57;;
84956;SDS011;75252;45.438;-73.814;2024-01-27T03:51:08;5.90;;;4.82;;
84956;SDS011;75252;45.438;-73.814;2024-01-27T03:53:34;6.43;;;4.72;;
84956;SDS011;75252;45.438;-73.814;2024-01-27T03:56:00;6.38;;;4.28;;
84956;SDS011;75252;45.438;-73.814;2024-01-27T03:58:30;6.53;;;5.10;;
84956;SDS011;75252;45.438;-73.814;2024-01-27T04:00:56;6.45;;;5.15;;
84956;SDS011;75252;45.438;-73.814;2024-01-27T04:03:22;6.78;;;5.30;;
84956;SDS011;75252;45.438;-73.814;2024-01-27T04:05:49;6.50;;;4.90;;
84956;SDS011;75252;45.438;-73.814;2024-01-27T04:08:15;7.40;;;4.65;;
84956;SDS011;75252;45.438;-73.814;2024-01-27T04:10:41;7.53;;;5.22;;
84956;SDS011;75252;45.438;-73.814;2024-01-27T04:13:07;6.22;;;4.80;;
84956;SDS011;75252;45.438;-73.814;2024-01-27T04:15:33;9.45;;;5.50;;
84956;SDS011;75252;45.438;-73.814;2024-01-27T04:18:06;6.50;;;4.38;;
84956;SDS011;75252;45.438;-73.814;2024-01-27T04:20:33;5.60;;;4.70;;
84956;SDS011;75252;45.438;-73.814;2024-01-27T04:23:00;5.47;;;4.45;;
84956;SDS011;75252;45.438;-73.814;2024-01-27T04:25:26;7.53;;;5.50;;
84956;SDS011;75252;45.438;-73.814;2024-01-27T04:27:52;7.07;;;5.10;;
84956;SDS011;75252;45.438;-73.814;2024-01-27T04:30:18;7.05;;;5.90;;
84956;SDS011;75252;45.438;-73.814;2024-01-27T04:32:44;6.20;;;4.85;;
84956;SDS011;75252;45.438;-73.814;2024-01-27T04:35:11;8.30;;;5.15;;
84956;SDS011;75252;45.438;-73.814;2024-01-27T04:37:37;7.75;;;5.43;;
84956;SDS011;75252;45.438;-73.814;2024-01-27T04:40:04;7.93;;;5.20;;
84956;SDS011;75252;45.438;-73.814;2024-01-27T04:42:32;7.07;;;5.05;;
84956;SDS011;75252;45.438;-73.814;2024-01-27T04:44:59;9.38;;;5.18;;
84956;SDS011;75252;45.438;-73.814;2024-01-27T04:47:26;6.18;;;4.93;;
84956;SDS011;75252;45.438;-73.814;2024-01-27T04:49:53;7.90;;;4.97;;
84956;SDS011;75252;45.438;-73.814;2024-01-27T04:52:19;6.15;;;4.78;;
84956;SDS011;75252;45.438;-73.814;2024-01-27T04:54:45;6.95;;;6.25;;
84956;SDS011;75252;45.438;-73.814;2024-01-27T04:57:11;6.45;;;4.78;;
84956;SDS011;75252;45.438;-73.814;2024-01-27T04:59:37;7.10;;;5.28;;
84956;SDS011;75252;45.438;-73.814;2024-01-27T05:02:03;6.60;;;5.07;;
84956;SDS011;75252;45.438;-73.814;2024-01-27T05:04:29;6.93;;;5.40;;
84956;SDS011;75252;45.438;-73.814;2024-01-27T05:06:55;5.90;;;4.70;;
84956;SDS011;75252;45.438;-73.814;2024-01-27T05:09:20;6.07;;;4.30;;
84956;SDS011;75252;45.438;-73.814;2024-01-27T05:11:46;6.80;;;4.97;;
84956;SDS011;75252;45.438;-73.814;2024-01-27T05:14:16;7.15;;;5.40;;
84956;SDS011;75252;45.438;-73.814;2024-01-27T05:16:42;6.93;;;5.05;;
84956;SDS011;75252;45.438;-73.814;2024-01-27T05:19:09;6.65;;;4.70;;
84956;SDS011;75252;45.438;-73.814;2024-01-27T05:21:35;7.43;;;4.85;;
84956;SDS011;75252;45.438;-73.814;2024-01-27T05:24:01;7.82;;;5.32;;
84956;SDS011;75252;45.438;-73.814;2024-01-27T05:26:27;6.10;;;4.70;;
84956;SDS011;75252;45.438;-73.814;2024-01-27T05:28:53;5.18;;;4.57;;
84956;SDS011;75252;45.438;-73.814;2024-01-27T05:31:19;5.88;;;4.25;;
84956;SDS011;75252;45.438;-73.814;2024-01-27T05:33:45;7.07;;;5.47;;
84956;SDS011;75252;45.438;-73.814;2024-01-27T05:36:10;6.28;;;4.90;;
84956;SDS011;75252;45.438;-73.814;2024-01-27T05:38:36;7.60;;;4.78;;
84956;SDS011;75252;45.438;-73.814;2024-01-27T05:41:02;9.70;;;4.95;;
84956;SDS011;75252;45.438;-73.814;2024-01-27T05:43:29;10.70;;;5.28;;
84956;SDS011;75252;45.438;-73.814;2024-01-27T05:45:55;6.03;;;4.78;;
84956;SDS011;75252;45.438;-73.814;2024-01-27T05:48:20;6.85;;;4.85;;
84956;SDS011;75252;45.438;-73.814;2024-01-27T05:50:59;7.78;;;6.15;;
84956;SDS011;75252;45.438;-73.814;2024-01-27T05:53:26;6.70;;;5.38;;
84956;SDS011;75252;45.438;-73.814;2024-01-27T05:55:52;8.00;;;5.60;;
84956;SDS011;75252;45.438;-73.814;2024-01-27T05:58:24;8.05;;;5.97;;
84956;SDS011;75252;45.438;-73.814;2024-01-27T06:00:50;7.63;;;5.15;;
84956;SDS011;75252;45.438;-73.814;2024-01-27T06:03:16;6.60;;;5.40;;
84956;SDS011;75252;45.438;-73.814;2024-01-27T06:05:42;7.78;;;5.90;;
84956;SDS011;75252;45.438;-73.814;2024-01-27T06:08:08;7.78;;;5.60;;
84956;SDS011;75252;45.438;-73.814;2024-01-27T06:10:34;7.78;;;5.38;;
84956;SDS011;75252;45.438;-73.814;2024-01-27T06:13:03;6.57;;;5.57;;
84956;SDS011;75252;45.438;-73.814;2024-01-27T06:15:30;7.70;;;6.43;;
84956;SDS011;75252;45.438;-73.814;2024-01-27T06:17:56;5.88;;;5.10;;
84956;SDS011;75252;45.438;-73.814;2024-01-27T06:20:22;8.95;;;6.43;;
84956;SDS011;75252;45.438;-73.814;2024-01-27T06:22:48;10.95;;;6.00;;
84956;SDS011;75252;45.438;-73.814;2024-01-27T06:25:14;7.28;;;5.05;;
84956;SDS011;75252;45.438;-73.814;2024-01-27T06:27:42;7.30;;;4.93;;
84956;SDS011;75252;45.438;-73.814;2024-01-27T06:30:08;8.13;;;5.65;;
84956;SDS011;75252;45.438;-73.814;2024-01-27T06:32:35;7.30;;;5.57;;
84956;SDS011;75252;45.438;-73.814;2024-01-27T06:35:01;7.60;;;5.65;;
84956;SDS011;75252;45.438;-73.814;2024-01-27T06:37:28;7.18;;;5.68;;
84956;SDS011;75252;45.438;-73.814;2024-01-27T06:39:54;6.90;;;5.32;;
84956;SDS011;75252;45.438;-73.814;2024-01-27T06:42:20;6.93;;;5.22;;
84956;SDS011;75252;45.438;-73.814;2024-01-27T06:44:46;5.82;;;4.90;;
84956;SDS011;75252;45.438;-73.814;2024-01-27T06:47:12;7.10;;;4.80;;
84956;SDS011;75252;45.438;-73.814;2024-01-27T06:49:38;7.97;;;5.22;;
84956;SDS011;75252;45.438;-73.814;2024-01-27T06:52:04;8.10;;;5.70;;
84956;SDS011;75252;45.438;-73.814;2024-01-27T06:54:30;6.22;;;5.00;;
84956;SDS011;75252;45.438;-73.814;2024-01-27T06:56:59;7.50;;;4.85;;
84956;SDS011;75252;45.438;-73.814;2024-01-27T06:59:25;6.45;;;5.40;;
84956;SDS011;75252;45.438;-73.814;2024-01-27T07:01:52;7.57;;;4.22;;
84956;SDS011;75252;45.438;-73.814;2024-01-27T07:04:18;6.97;;;5.05;;
84956;SDS011;75252;45.438;-73.814;2024-01-27T07:06:44;6.97;;;5.07;;
84956;SDS011;75252;45.438;-73.814;2024-01-27T07:09:10;5.93;;;4.68;;
84956;SDS011;75252;45.438;-73.814;2024-01-27T07:11:36;5.07;;;4.35;;
84956;SDS011;75252;45.438;-73.814;2024-01-27T07:14:02;6.45;;;5.45;;
84956;SDS011;75252;45.438;-73.814;2024-01-27T07:16:29;8.40;;;5.00;;
84956;SDS011;75252;45.438;-73.814;2024-01-27T07:18:55;7.43;;;5.20;;
84956;SDS011;75252;45.438;-73.814;2024-01-27T07:21:20;5.95;;;4.72;;
84956;SDS011;75252;45.438;-73.814;2024-01-27T07:23:46;5.28;;;4.78;;
84956;SDS011;75252;45.438;-73.814;2024-01-27T07:26:12;5.80;;;4.05;;
84956;SDS011;75252;45.438;-73.814;2024-01-27T07:28:38;5.30;;;4.20;;
84956;SDS011;75252;45.438;-73.814;2024-01-27T07:31:07;7.22;;;5.05;;
84956;SDS011;75252;45.438;-73.814;2024-01-27T07:33:33;6.63;;;4.75;;
84956;SDS011;75252;45.438;-73.814;2024-01-27T07:35:59;7.30;;;4.28;;
84956;SDS011;75252;45.438;-73.814;2024-01-27T07:38:25;5.60;;;3.85;;
84956;SDS011;75252;45.438;-73.814;2024-01-27T07:40:52;8.18;;;4.85;;
84956;SDS011;75252;45.438;-73.814;2024-01-27T07:43:18;8.10;;;4.30;;
84956;SDS011;75252;45.438;-73.814;2024-01-27T07:45:44;5.70;;;4.43;;
84956;SDS011;75252;45.438;-73.814;2024-01-27T07:48:09;5.47;;;4.60;;
84956;SDS011;75252;45.438;-73.814;2024-01-27T07:50:35;7.00;;;4.00;;
84956;SDS011;75252;45.438;-73.814;2024-01-27T07:53:01;6.63;;;4.75;;
84956;SDS011;75252;45.438;-73.814;2024-01-27T07:55:27;5.55;;;4.60;;
84956;SDS011;75252;45.438;-73.814;2024-01-27T07:57:53;5.68;;;4.65;;
84956;SDS011;75252;45.438;-73.814;2024-01-27T08:00:19;6.28;;;4.70;;
84956;SDS011;75252;45.438;-73.814;2024-01-27T08:02:45;5.82;;;4.65;;
84956;SDS011;75252;45.438;-73.814;2024-01-27T08:05:11;7.80;;;5.00;;
84956;SDS011;75252;45.438;-73.814;2024-01-27T08:07:37;8.15;;;5.05;;
84956;SDS011;75252;45.438;-73.814;2024-01-27T08:10:03;7.88;;;5.05;;
84956;SDS011;75252;45.438;-73.814;2024-01-27T08:12:29;7.22;;;5.22;;
84956;SDS011;75252;45.438;-73.814;2024-01-27T08:14:55;6.22;;;5.03;;
84956;SDS011;75252;45.438;-73.814;2024-01-27T08:17:21;6.28;;;4.63;;
84956;SDS011;75252;45.438;-73.814;2024-01-27T08:19:47;6.22;;;4.57;;
84956;SDS011;75252;45.438;-73.814;2024-01-27T08:22:13;6.82;;;5.20;;
84956;SDS011;75252;45.438;-73.814;2024-01-27T08:24:39;6.43;;;5.15;;
84956;SDS011;75252;45.438;-73.814;2024-01-27T08:27:05;9.00;;;5.22;;
84956;SDS011;75252;45.438;-73.814;2024-01-27T08:29:31;6.63;;;5.25;;
84956;SDS011;75252;45.438;-73.814;2024-01-27T08:31:56;7.30;;;5.53;;
84956;SDS011;75252;45.438;-73.814;2024-01-27T08:34:22;5.00;;;4.47;;
84956;SDS011;75252;45.438;-73.814;2024-01-27T08:36:48;6.38;;;5.15;;
84956;SDS011;75252;45.438;-73.814;2024-01-27T08:39:14;6.40;;;4.70;;
84956;SDS011;75252;45.438;-73.814;2024-01-27T08:41:40;8.23;;;5.63;;
84956;SDS011;75252;45.438;-73.814;2024-01-27T08:44:06;5.13;;;4.63;;
84956;SDS011;75252;45.438;-73.814;2024-01-27T08:46:32;8.23;;;4.90;;
84956;SDS011;75252;45.438;-73.814;2024-01-27T08:48:57;6.60;;;4.55;;
84956;SDS011;75252;45.438;-73.814;2024-01-27T08:51:23;7.97;;;4.78;;
84956;SDS011;75252;45.438;-73.814;2024-01-27T08:53:49;6.90;;;4.50;;
84956;SDS011;75252;45.438;-73.814;2024-01-27T08:56:15;5.45;;;4.10;;
84956;SDS011;75252;45.438;-73.814;2024-01-27T08:58:43;6.80;;;4.70;;
84956;SDS011;75252;45.438;-73.814;2024-01-27T09:01:09;6.07;;;4.53;;
84956;SDS011;75252;45.438;-73.814;2024-01-27T09:03:38;5.53;;;4.93;;
84956;SDS011;75252;45.438;-73.814;2024-01-27T09:06:05;5.03;;;4.25;;
84956;SDS011;75252;45.438;-73.814;2024-01-27T09:08:35;7.05;;;5.35;;
84956;SDS011;75252;45.438;-73.814;2024-01-27T09:11:01;5.57;;;4.93;;
84956;SDS011;75252;45.438;-73.814;2024-01-27T09:13:28;5.30;;;4.60;;
84956;SDS011;75252;45.438;-73.814;2024-01-27T09:15:53;6.68;;;4.05;;
84956;SDS011;75252;45.438;-73.814;2024-01-27T09:18:20;6.95;;;5.15;;
84956;SDS011;75252;45.438;-73.814;2024-01-27T09:20:47;6.45;;;4.78;;
84956;SDS011;75252;45.438;-73.814;2024-01-27T09:23:13;5.32;;;4.35;;
84956;SDS011;75252;45.438;-73.814;2024-01-27T09:25:39;6.13;;;4.68;;
84956;SDS011;75252;45.438;-73.814;2024-01-27T09:28:05;6.40;;;4.22;;
84956;SDS011;75252;45.438;-73.814;2024-01-27T09:30:31;10.43;;;5.78;;
84956;SDS011;75252;45.438;-73.814;2024-01-27T09:32:57;5.75;;;4.68;;
84956;SDS011;75252;45.438;-73.814;2024-01-27T09:35:23;7.45;;;5.40;;
84956;SDS011;75252;45.438;-73.814;2024-01-27T09:37:49;6.95;;;4.85;;
84956;SDS011;75252;45.438;-73.814;2024-01-27T09:40:15;6.70;;;5.13;;
84956;SDS011;75252;45.438;-73.814;2024-01-27T09:42:42;8.02;;;5.55;;
84956;SDS011;75252;45.438;-73.814;2024-01-27T09:45:15;6.95;;;4.97;;
84956;SDS011;75252;45.438;-73.814;2024-01-27T09:47:41;8.60;;;5.20;;
84956;SDS011;75252;45.438;-73.814;2024-01-27T09:50:08;8.27;;;5.60;;
84956;SDS011;75252;45.438;-73.814;2024-01-27T09:52:37;6.63;;;5.20;;
84956;SDS011;75252;45.438;-73.814;2024-01-27T09:55:03;6.93;;;5.35;;
84956;SDS011;75252;45.438;-73.814;2024-01-27T09:57:29;12.25;;;5.55;;
84956;SDS011;75252;45.438;-73.814;2024-01-27T09:59:56;7.28;;;5.93;;
84956;SDS011;75252;45.438;-73.814;2024-01-27T10:02:24;7.20;;;5.70;;
84956;SDS011;75252;45.438;-73.814;2024-01-27T10:04:50;7.75;;;5.50;;
84956;SDS011;75252;45.438;-73.814;2024-01-27T10:07:16;6.10;;;4.60;;
84956;SDS011;75252;45.438;-73.814;2024-01-27T10:09:42;5.60;;;4.45;;
84956;SDS011;75252;45.438;-73.814;2024-01-27T10:12:09;6.72;;;5.00;;
84956;SDS011;75252;45.438;-73.814;2024-01-27T10:14:40;7.18;;;5.05;;
84956;SDS011;75252;45.438;-73.814;2024-01-27T10:17:19;8.35;;;5.90;;
84956;SDS011;75252;45.438;-73.814;2024-01-27T10:20:02;6.47;;;5.47;;
84956;SDS011;75252;45.438;-73.814;2024-01-27T10:22:29;7.55;;;5.80;;
84956;SDS011;75252;45.438;-73.814;2024-01-27T10:25:02;11.30;;;5.55;;
84956;SDS011;75252;45.438;-73.814;2024-01-27T10:27:28;7.50;;;5.35;;
84956;SDS011;75252;45.438;-73.814;2024-01-27T10:29:54;8.18;;;6.70;;
84956;SDS011;75252;45.438;-73.814;2024-01-27T10:32:20;9.35;;;6.05;;
84956;SDS011;75252;45.438;-73.814;2024-01-27T10:34:49;6.47;;;5.43;;
84956;SDS011;75252;45.438;-73.814;2024-01-27T10:37:26;6.90;;;5.57;;
84956;SDS011;75252;45.438;-73.814;2024-01-27T10:40:05;9.05;;;5.65;;
84956;SDS011;75252;45.438;-73.814;2024-01-27T10:42:36;8.73;;;5.82;;
84956;SDS011;75252;45.438;-73.814;2024-01-27T10:45:02;8.93;;;6.25;;
84956;SDS011;75252;45.438;-73.814;2024-01-27T10:47:30;9.63;;;6.10;;
84956;SDS011;75252;45.438;-73.814;2024-01-27T10:49:58;11.25;;;6.85;;
84956;SDS011;75252;45.438;-73.814;2024-01-27T10:52:29;10.43;;;6.28;;
84956;SDS011;75252;45.438;-73.814;2024-01-27T10:54:58;10.15;;;6.55;;
84956;SDS011;75252;45.438;-73.814;2024-01-27T10:57:31;11.40;;;7.07;;
84956;SDS011;75252;45.438;-73.814;2024-01-27T11:00:00;10.57;;;6.32;;
84956;SDS011;75252;45.438;-73.814;2024-01-27T11:02:31;8.05;;;5.70;;
84956;SDS011;75252;45.438;-73.814;2024-01-27T11:07:25;8.57;;;6.53;;
84956;SDS011;75252;45.438;-73.814;2024-01-27T11:09:52;9.02;;;5.60;;
84956;SDS011;75252;45.438;-73.814;2024-01-27T11:12:19;7.68;;;5.53;;
84956;SDS011;75252;45.438;-73.814;2024-01-27T11:14:47;8.18;;;5.78;;
84956;SDS011;75252;45.438;-73.814;2024-01-27T11:17:14;8.65;;;5.63;;
84956;SDS011;75252;45.438;-73.814;2024-01-27T11:19:41;7.60;;;5.53;;
84956;SDS011;75252;45.438;-73.814;2024-01-27T11:22:06;7.55;;;6.13;;
84956;SDS011;75252;45.438;-73.814;2024-01-27T11:24:32;7.70;;;5.68;;
84956;SDS011;75252;45.438;-73.814;2024-01-27T11:29:27;8.60;;;5.55;;
84956;SDS011;75252;45.438;-73.814;2024-01-27T11:31:55;7.90;;;6.57;;
84956;SDS011;75252;45.438;-73.814;2024-01-27T11:34:21;8.80;;;6.22;;
84956;SDS011;75252;45.438;-73.814;2024-01-27T11:36:47;11.38;;;5.85;;
84956;SDS011;75252;45.438;-73.814;2024-01-27T11:42:09;7.45;;;5.38;;
84956;SDS011;75252;45.438;-73.814;2024-01-27T11:44:38;7.05;;;5.53;;
84956;SDS011;75252;45.438;-73.814;2024-01-27T11:47:05;7.63;;;6.10;;
84956;SDS011;75252;45.438;-73.814;2024-01-27T11:49:51;10.05;;;5.03;;
84956;SDS011;75252;45.438;-73.814;2024-01-27T11:52:19;7.32;;;5.53;;
84956;SDS011;75252;45.438;-73.814;2024-01-27T11:54:46;6.82;;;5.28;;
84956;SDS011;75252;45.438;-73.814;2024-01-27T11:57:18;6.75;;;5.20;;
84956;SDS011;75252;45.438;-73.814;2024-01-27T11:59:44;8.70;;;5.88;;
84956;SDS011;75252;45.438;-73.814;2024-01-27T12:02:10;8.15;;;5.85;;
84956;SDS011;75252;45.438;-73.814;2024-01-27T12:04:36;8.60;;;6.10;;
84956;SDS011;75252;45.438;-73.814;2024-01-27T12:07:02;9.57;;;5.90;;
84956;SDS011;75252;45.438;-73.814;2024-01-27T12:09:28;8.30;;;5.85;;
84956;SDS011;75252;45.438;-73.814;2024-01-27T12:11:54;10.27;;;5.80;;
84956;SDS011;75252;45.438;-73.814;2024-01-27T12:14:20;6.65;;;5.40;;
84956;SDS011;75252;45.438;-73.814;2024-01-27T12:16:46;8.85;;;6.28;;
84956;SDS011;75252;45.438;-73.814;2024-01-27T12:19:13;8.07;;;6.15;;
84956;SDS011;75252;45.438;-73.814;2024-01-27T12:21:46;9.77;;;5.68;;
84956;SDS011;75252;45.438;-73.814;2024-01-27T12:24:16;7.75;;;5.68;;
84956;SDS011;75252;45.438;-73.814;2024-01-27T12:26:45;6.88;;;5.63;;
84956;SDS011;75252;45.438;-73.814;2024-01-27T12:29:11;8.50;;;5.25;;
84956;SDS011;75252;45.438;-73.814;2024-01-27T12:31:37;7.63;;;5.43;;
84956;SDS011;75252;45.438;-73.814;2024-01-27T12:34:03;5.60;;;5.00;;
84956;SDS011;75252;45.438;-73.814;2024-01-27T12:36:29;6.05;;;5.43;;
84956;SDS011;75252;45.438;-73.814;2024-01-27T12:38:56;7.10;;;5.75;;
84956;SDS011;75252;45.438;-73.814;2024-01-27T12:41:29;9.32;;;5.35;;
84956;SDS011;75252;45.438;-73.814;2024-01-27T12:43:55;7.35;;;6.15;;
84956;SDS011;75252;45.438;-73.814;2024-01-27T12:46:21;9.05;;;6.47;;
84956;SDS011;75252;45.438;-73.814;2024-01-27T12:48:48;7.35;;;5.15;;
84956;SDS011;75252;45.438;-73.814;2024-01-27T12:51:13;8.38;;;6.03;;
84956;SDS011;75252;45.438;-73.814;2024-01-27T12:53:40;8.75;;;5.97;;
84956;SDS011;75252;45.438;-73.814;2024-01-27T12:56:09;11.05;;;5.68;;
84956;SDS011;75252;45.438;-73.814;2024-01-27T12:58:36;6.93;;;5.88;;
84956;SDS011;75252;45.438;-73.814;2024-01-27T13:01:02;7.22;;;5.68;;
84956;SDS011;75252;45.438;-73.814;2024-01-27T13:03:28;8.82;;;6.00;;
84956;SDS011;75252;45.438;-73.814;2024-01-27T13:05:56;7.90;;;5.47;;
84956;SDS011;75252;45.438;-73.814;2024-01-27T13:08:22;6.63;;;5.40;;
84956;SDS011;75252;45.438;-73.814;2024-01-27T13:10:48;9.00;;;6.28;;
84956;SDS011;75252;45.438;-73.814;2024-01-27T13:13:14;7.07;;;5.68;;
84956;SDS011;75252;45.438;-73.814;2024-01-27T13:15:41;8.10;;;5.95;;
84956;SDS011;75252;45.438;-73.814;2024-01-27T13:18:09;9.15;;;5.35;;
84956;SDS011;75252;45.438;-73.814;2024-01-27T13:20:38;8.88;;;5.97;;
84956;SDS011;75252;45.438;-73.814;2024-01-27T13:23:07;6.97;;;5.80;;
84956;SDS011;75252;45.438;-73.814;2024-01-27T13:25:33;5.85;;;5.05;;
84956;SDS011;75252;45.438;-73.814;2024-01-27T13:27:59;6.68;;;5.03;;
84956;SDS011;75252;45.438;-73.814;2024-01-27T13:30:25;6.40;;;5.10;;
84956;SDS011;75252;45.438;-73.814;2024-01-27T13:32:52;8.95;;;6.70;;
84956;SDS011;75252;45.438;-73.814;2024-01-27T13:35:17;8.18;;;5.60;;
84956;SDS011;75252;45.438;-73.814;2024-01-27T13:37:43;8.18;;;5.30;;
84956;SDS011;75252;45.438;-73.814;2024-01-27T13:40:11;9.63;;;6.53;;
84956;SDS011;75252;45.438;-73.814;2024-01-27T13:42:37;7.35;;;5.95;;
84956;SDS011;75252;45.438;-73.814;2024-01-27T13:45:03;8.02;;;5.32;;
84956;SDS011;75252;45.438;-73.814;2024-01-27T13:47:30;7.18;;;5.45;;
84956;SDS011;75252;45.438;-73.814;2024-01-27T13:49:56;8.38;;;5.90;;
84956;SDS011;75252;45.438;-73.814;2024-01-27T13:52:23;7.45;;;5.93;;
84956;SDS011;75252;45.438;-73.814;2024-01-27T13:54:49;7.35;;;5.43;;
84956;SDS011;75252;45.438;-73.814;2024-01-27T13:57:15;8.45;;;5.95;;
84956;SDS011;75252;45.438;-73.814;2024-01-27T13:59:41;7.22;;;5.75;;
84956;SDS011;75252;45.438;-73.814;2024-01-27T14:02:07;8.05;;;5.55;;
84956;SDS011;75252;45.438;-73.814;2024-01-27T14:04:34;8.25;;;5.75;;
84956;SDS011;75252;45.438;-73.814;2024-01-27T14:07:00;7.40;;;6.30;;
84956;SDS011;75252;45.438;-73.814;2024-01-27T14:09:32;6.80;;;5.50;;
84956;SDS011;75252;45.438;-73.814;2024-01-27T14:11:58;9.00;;;6.00;;
84956;SDS011;75252;45.438;-73.814;2024-01-27T14:14:24;9.40;;;5.30;;
84956;SDS011;75252;45.438;-73.814;2024-01-27T14:16:50;7.20;;;5.22;;
84956;SDS011;75252;45.438;-73.814;2024-01-27T14:19:15;9.00;;;6.55;;
84956;SDS011;75252;45.438;-73.814;2024-01-27T14:21:41;10.65;;;5.15;;
84956;SDS011;75252;45.438;-73.814;2024-01-27T14:24:08;10.13;;;6.50;;
84956;SDS011;75252;45.438;-73.814;2024-01-27T14:26:34;8.90;;;5.97;;
84956;SDS011;75252;45.438;-73.814;2024-01-27T14:29:00;8.18;;;6.22;;